sensor_id;sensor_type;location;lat;lon;timestamp;P1;durP1;ratioP1;P2;durP2;ratioP2
26062;SDS011;13837;48.562;12.108;2023-03-23T00:01:10;9.65;;;7.68;;
26062;SDS011;13837;48.562;12.108;2023-03-23T00:03:38;8.90;;;7.43;;
26062;SDS011;13837;48.562;12.108;2023-03-23T00:06:04;10.07;;;7.75;;
26062;SDS011;13837;48.562;12.108;2023-03-23T00:08:35;10.25;;;8.05;;
26062;SDS011;13837;48.562;12.108;2023-03-23T00:11:14;13.25;;;8.18;;
26062;SDS011;13837;48.562;12.108;2023-03-23T00:13:41;13.13;;;8.10;;
26062;SDS011;13837;48.562;12.108;2023-03-23T00:16:08;9.75;;;7.80;;
26062;SDS011;13837;48.562;12.108;2023-03-23T00:18:51;10.93;;;7.90;;
26062;SDS011;13837;48.562;12.108;2023-03-23T00:21:18;8.57;;;7.78;;
26062;SDS011;13837;48.562;12.108;2023-03-23T00:23:45;9.50;;;7.85;;
26062;SDS011;13837;48.562;12.108;2023-03-23T00:26:11;10.88;;;7.75;;
26062;SDS011;13837;48.562;12.108;2023-03-23T00:28:38;9.63;;;7.85;;
26062;SDS011;13837;48.562;12.108;2023-03-23T00:31:05;8.98;;;7.55;;
26062;SDS011;13837;48.562;12.108;2023-03-23T00:33:35;11.27;;;7.38;;
26062;SDS011;13837;48.562;12.108;2023-03-23T00:36:06;9.80;;;7.30;;
26062;SDS011;13837;48.562;12.108;2023-03-23T00:38:34;7.68;;;6.97;;
26062;SDS011;13837;48.562;12.108;2023-03-23T00:41:01;11.90;;;8.68;;
26062;SDS011;13837;48.562;12.108;2023-03-23T00:45:56;9.80;;;7.47;;
26062;SDS011;13837;48.562;12.108;2023-03-23T00:48:26;8.50;;;7.13;;
26062;SDS011;13837;48.562;12.108;2023-03-23T00:50:52;7.97;;;6.70;;
26062;SDS011;13837;48.562;12.108;2023-03-23T00:53:20;7.75;;;7.05;;
26062;SDS011;13837;48.562;12.108;2023-03-23T00:55:46;8.90;;;7.28;;
26062;SDS011;13837;48.562;12.108;2023-03-23T00:58:13;9.40;;;7.43;;
26062;SDS011;13837;48.562;12.108;2023-03-23T01:00:40;7.22;;;6.53;;
26062;SDS011;13837;48.562;12.108;2023-03-23T01:03:07;7.13;;;6.47;;
26062;SDS011;13837;48.562;12.108;2023-03-23T01:05:34;7.93;;;6.85;;
26062;SDS011;13837;48.562;12.108;2023-03-23T01:08:01;8.48;;;6.75;;
26062;SDS011;13837;48.562;12.108;2023-03-23T01:10:29;9.82;;;7.80;;
26062;SDS011;13837;48.562;12.108;2023-03-23T01:12:58;8.15;;;7.28;;
26062;SDS011;13837;48.562;12.108;2023-03-23T01:15:26;10.85;;;7.63;;
26062;SDS011;13837;48.562;12.108;2023-03-23T01:17:52;8.05;;;7.28;;
26062;SDS011;13837;48.562;12.108;2023-03-23T01:20:18;7.72;;;6.88;;
26062;SDS011;13837;48.562;12.108;2023-03-23T01:22:45;8.32;;;7.40;;
26062;SDS011;13837;48.562;12.108;2023-03-23T01:25:11;9.63;;;7.28;;
26062;SDS011;13837;48.562;12.108;2023-03-23T01:27:38;8.65;;;7.05;;
26062;SDS011;13837;48.562;12.108;2023-03-23T01:30:05;8.00;;;7.20;;
26062;SDS011;13837;48.562;12.108;2023-03-23T01:32:31;8.63;;;6.95;;
26062;SDS011;13837;48.562;12.108;2023-03-23T01:34:57;9.27;;;7.35;;
26062;SDS011;13837;48.562;12.108;2023-03-23T01:37:24;8.77;;;7.38;;
26062;SDS011;13837;48.562;12.108;2023-03-23T01:39:53;7.65;;;6.70;;
26062;SDS011;13837;48.562;12.108;2023-03-23T01:42:23;8.77;;;7.53;;
26062;SDS011;13837;48.562;12.108;2023-03-23T01:47:16;10.13;;;7.43;;
26062;SDS011;13837;48.562;12.108;2023-03-23T01:49:44;10.20;;;7.90;;
26062;SDS011;13837;48.562;12.108;2023-03-23T01:52:14;7.20;;;6.50;;
26062;SDS011;13837;48.562;12.108;2023-03-23T01:54:42;8.05;;;7.32;;
26062;SDS011;13837;48.562;12.108;2023-03-23T01:57:15;8.85;;;6.50;;
26062;SDS011;13837;48.562;12.108;2023-03-23T01:59:43;9.50;;;7.22;;
26062;SDS011;13837;48.562;12.108;2023-03-23T02:02:15;7.63;;;6.93;;
26062;SDS011;13837;48.562;12.108;2023-03-23T02:04:42;8.85;;;7.45;;
26062;SDS011;13837;48.562;12.108;2023-03-23T02:07:09;7.22;;;6.53;;
26062;SDS011;13837;48.562;12.108;2023-03-23T02:09:36;9.90;;;7.15;;
26062;SDS011;13837;48.562;12.108;2023-03-23T02:12:02;7.95;;;7.15;;
26062;SDS011;13837;48.562;12.108;2023-03-23T02:14:29;8.55;;;7.63;;
26062;SDS011;13837;48.562;12.108;2023-03-23T02:17:02;8.55;;;7.55;;
26062;SDS011;13837;48.562;12.108;2023-03-23T02:19:41;9.05;;;7.28;;
26062;SDS011;13837;48.562;12.108;2023-03-23T02:22:19;7.88;;;7.15;;
26062;SDS011;13837;48.562;12.108;2023-03-23T02:35:02;8.90;;;7.18;;
26062;SDS011;13837;48.562;12.108;2023-03-23T02:39:57;8.35;;;7.35;;
26062;SDS011;13837;48.562;12.108;2023-03-23T02:42:32;8.80;;;7.80;;
26062;SDS011;13837;48.562;12.108;2023-03-23T02:44:59;8.65;;;7.85;;
26062;SDS011;13837;48.562;12.108;2023-03-23T02:47:29;14.48;;;8.68;;
26062;SDS011;13837;48.562;12.108;2023-03-23T02:49:55;8.45;;;7.65;;
26062;SDS011;13837;48.562;12.108;2023-03-23T02:52:30;8.50;;;7.80;;
26062;SDS011;13837;48.562;12.108;2023-03-23T02:54:56;8.80;;;7.90;;
26062;SDS011;13837;48.562;12.108;2023-03-23T02:57:24;8.50;;;7.68;;
26062;SDS011;13837;48.562;12.108;2023-03-23T02:59:52;8.35;;;7.55;;
26062;SDS011;13837;48.562;12.108;2023-03-23T03:02:21;8.82;;;7.85;;
26062;SDS011;13837;48.562;12.108;2023-03-23T03:07:23;7.88;;;7.18;;
26062;SDS011;13837;48.562;12.108;2023-03-23T03:09:59;10.10;;;7.55;;
26062;SDS011;13837;48.562;12.108;2023-03-23T03:15:01;8.05;;;7.25;;
26062;SDS011;13837;48.562;12.108;2023-03-23T03:17:32;8.98;;;8.07;;
26062;SDS011;13837;48.562;12.108;2023-03-23T03:20:02;9.90;;;7.90;;
26062;SDS011;13837;48.562;12.108;2023-03-23T03:22:35;9.45;;;7.80;;
26062;SDS011;13837;48.562;12.108;2023-03-23T03:25:07;8.50;;;7.72;;
26062;SDS011;13837;48.562;12.108;2023-03-23T03:27:34;9.27;;;7.43;;
26062;SDS011;13837;48.562;12.108;2023-03-23T03:30:14;9.98;;;7.68;;
26062;SDS011;13837;48.562;12.108;2023-03-23T03:32:47;11.25;;;7.90;;
26062;SDS011;13837;48.562;12.108;2023-03-23T03:35:16;8.10;;;7.30;;
26062;SDS011;13837;48.562;12.108;2023-03-23T03:37:43;9.55;;;7.45;;
26062;SDS011;13837;48.562;12.108;2023-03-23T03:40:11;10.45;;;8.80;;
26062;SDS011;13837;48.562;12.108;2023-03-23T03:42:39;11.32;;;7.65;;
26062;SDS011;13837;48.562;12.108;2023-03-23T03:45:08;8.57;;;7.50;;
26062;SDS011;13837;48.562;12.108;2023-03-23T03:47:34;9.18;;;8.13;;
26062;SDS011;13837;48.562;12.108;2023-03-23T03:50:00;9.00;;;7.72;;
26062;SDS011;13837;48.562;12.108;2023-03-23T03:52:26;11.07;;;8.18;;
26062;SDS011;13837;48.562;12.108;2023-03-23T03:54:54;8.20;;;7.40;;
26062;SDS011;13837;48.562;12.108;2023-03-23T03:57:21;10.38;;;8.55;;
26062;SDS011;13837;48.562;12.108;2023-03-23T04:00:18;11.00;;;7.95;;
26062;SDS011;13837;48.562;12.108;2023-03-23T04:02:47;11.63;;;7.75;;
26062;SDS011;13837;48.562;12.108;2023-03-23T04:05:18;9.52;;;8.15;;
26062;SDS011;13837;48.562;12.108;2023-03-23T04:07:47;12.27;;;8.80;;
26062;SDS011;13837;48.562;12.108;2023-03-23T04:10:19;10.48;;;8.55;;
26062;SDS011;13837;48.562;12.108;2023-03-23T04:12:48;9.75;;;8.07;;
26062;SDS011;13837;48.562;12.108;2023-03-23T04:15:32;10.90;;;7.75;;
26062;SDS011;13837;48.562;12.108;2023-03-23T04:17:59;8.43;;;7.63;;
26062;SDS011;13837;48.562;12.108;2023-03-23T04:20:27;9.25;;;8.05;;
26062;SDS011;13837;48.562;12.108;2023-03-23T04:22:53;9.73;;;8.38;;
26062;SDS011;13837;48.562;12.108;2023-03-23T04:25:20;8.90;;;8.00;;
26062;SDS011;13837;48.562;12.108;2023-03-23T04:27:49;9.25;;;7.70;;
26062;SDS011;13837;48.562;12.108;2023-03-23T04:30:22;11.90;;;8.73;;
26062;SDS011;13837;48.562;12.108;2023-03-23T04:33:06;9.05;;;7.93;;
26062;SDS011;13837;48.562;12.108;2023-03-23T04:35:32;9.25;;;8.45;;
26062;SDS011;13837;48.562;12.108;2023-03-23T04:38:08;9.20;;;7.63;;
26062;SDS011;13837;48.562;12.108;2023-03-23T04:40:36;9.40;;;8.07;;
26062;SDS011;13837;48.562;12.108;2023-03-23T04:43:13;8.23;;;7.47;;
26062;SDS011;13837;48.562;12.108;2023-03-23T04:45:58;9.43;;;7.80;;
26062;SDS011;13837;48.562;12.108;2023-03-23T04:48:29;10.60;;;8.20;;
26062;SDS011;13837;48.562;12.108;2023-03-23T04:53:47;9.38;;;7.60;;
26062;SDS011;13837;48.562;12.108;2023-03-23T04:56:13;12.40;;;8.57;;
26062;SDS011;13837;48.562;12.108;2023-03-23T05:01:20;9.60;;;8.18;;
26062;SDS011;13837;48.562;12.108;2023-03-23T05:04:00;9.18;;;8.27;;
26062;SDS011;13837;48.562;12.108;2023-03-23T05:06:27;9.85;;;7.97;;
26062;SDS011;13837;48.562;12.108;2023-03-23T05:08:59;10.55;;;7.80;;
26062;SDS011;13837;48.562;12.108;2023-03-23T05:11:25;9.20;;;7.88;;
26062;SDS011;13837;48.562;12.108;2023-03-23T05:13:52;9.95;;;7.78;;
26062;SDS011;13837;48.562;12.108;2023-03-23T05:16:18;10.93;;;8.13;;
26062;SDS011;13837;48.562;12.108;2023-03-23T05:18:44;9.80;;;7.53;;
26062;SDS011;13837;48.562;12.108;2023-03-23T05:21:14;9.13;;;8.25;;
26062;SDS011;13837;48.562;12.108;2023-03-23T05:23:45;7.82;;;7.07;;
26062;SDS011;13837;48.562;12.108;2023-03-23T05:26:19;8.70;;;7.88;;
26062;SDS011;13837;48.562;12.108;2023-03-23T05:28:45;7.70;;;7.00;;
26062;SDS011;13837;48.562;12.108;2023-03-23T05:31:18;7.47;;;6.78;;
26062;SDS011;13837;48.562;12.108;2023-03-23T05:33:44;7.28;;;6.47;;
26062;SDS011;13837;48.562;12.108;2023-03-23T05:36:26;7.13;;;6.28;;
26062;SDS011;13837;48.562;12.108;2023-03-23T05:39:23;11.07;;;7.25;;
26062;SDS011;13837;48.562;12.108;2023-03-23T05:42:24;8.25;;;7.45;;
26062;SDS011;13837;48.562;12.108;2023-03-23T05:45:02;11.32;;;7.30;;
26062;SDS011;13837;48.562;12.108;2023-03-23T05:47:28;7.20;;;6.60;;
26062;SDS011;13837;48.562;12.108;2023-03-23T05:50:00;8.02;;;7.25;;
26062;SDS011;13837;48.562;12.108;2023-03-23T05:52:28;8.27;;;6.80;;
26062;SDS011;13837;48.562;12.108;2023-03-23T05:54:57;9.02;;;7.57;;
26062;SDS011;13837;48.562;12.108;2023-03-23T05:57:24;9.95;;;7.50;;
26062;SDS011;13837;48.562;12.108;2023-03-23T06:00:01;8.00;;;7.28;;
26062;SDS011;13837;48.562;12.108;2023-03-23T06:02:37;9.05;;;7.72;;
26062;SDS011;13837;48.562;12.108;2023-03-23T06:05:06;9.90;;;8.67;;
26062;SDS011;13837;48.562;12.108;2023-03-23T06:07:34;10.98;;;7.97;;
26062;SDS011;13837;48.562;12.108;2023-03-23T06:10:04;8.73;;;7.90;;
26062;SDS011;13837;48.562;12.108;2023-03-23T06:12:37;7.80;;;7.00;;
26062;SDS011;13837;48.562;12.108;2023-03-23T06:15:03;8.88;;;7.25;;
26062;SDS011;13837;48.562;12.108;2023-03-23T06:17:51;9.35;;;7.53;;
26062;SDS011;13837;48.562;12.108;2023-03-23T06:20:22;11.23;;;7.68;;
26062;SDS011;13837;48.562;12.108;2023-03-23T06:22:49;8.15;;;7.35;;
26062;SDS011;13837;48.562;12.108;2023-03-23T06:25:25;8.80;;;7.97;;
26062;SDS011;13837;48.562;12.108;2023-03-23T06:27:51;9.40;;;7.80;;
26062;SDS011;13837;48.562;12.108;2023-03-23T06:30:18;9.82;;;7.95;;
26062;SDS011;13837;48.562;12.108;2023-03-23T06:32:44;8.40;;;7.65;;
26062;SDS011;13837;48.562;12.108;2023-03-23T06:35:13;7.90;;;7.10;;
26062;SDS011;13837;48.562;12.108;2023-03-23T06:37:58;10.48;;;7.30;;
26062;SDS011;13837;48.562;12.108;2023-03-23T06:40:55;7.45;;;6.80;;
26062;SDS011;13837;48.562;12.108;2023-03-23T06:43:24;9.40;;;7.20;;
26062;SDS011;13837;48.562;12.108;2023-03-23T06:45:58;7.68;;;6.88;;
26062;SDS011;13837;48.562;12.108;2023-03-23T06:48:40;9.57;;;6.82;;
26062;SDS011;13837;48.562;12.108;2023-03-23T06:51:09;7.57;;;6.78;;
26062;SDS011;13837;48.562;12.108;2023-03-23T06:53:38;6.90;;;6.18;;
26062;SDS011;13837;48.562;12.108;2023-03-23T06:56:07;7.45;;;6.75;;
26062;SDS011;13837;48.562;12.108;2023-03-23T06:58:34;7.60;;;6.50;;
26062;SDS011;13837;48.562;12.108;2023-03-23T07:01:00;7.57;;;6.80;;
26062;SDS011;13837;48.562;12.108;2023-03-23T07:03:35;9.20;;;7.00;;
26062;SDS011;13837;48.562;12.108;2023-03-23T07:06:02;10.25;;;6.38;;
26062;SDS011;13837;48.562;12.108;2023-03-23T07:08:32;7.30;;;5.90;;
26062;SDS011;13837;48.562;12.108;2023-03-23T07:10:58;7.15;;;6.40;;
26062;SDS011;13837;48.562;12.108;2023-03-23T07:13:27;9.15;;;6.65;;
26062;SDS011;13837;48.562;12.108;2023-03-23T07:15:57;6.88;;;6.18;;
26062;SDS011;13837;48.562;12.108;2023-03-23T07:18:24;8.07;;;6.25;;
26062;SDS011;13837;48.562;12.108;2023-03-23T07:20:52;6.93;;;6.25;;
26062;SDS011;13837;48.562;12.108;2023-03-23T07:23:22;16.13;;;7.60;;
26062;SDS011;13837;48.562;12.108;2023-03-23T07:26:14;10.82;;;7.60;;
26062;SDS011;13837;48.562;12.108;2023-03-23T07:28:52;11.20;;;8.15;;
26062;SDS011;13837;48.562;12.108;2023-03-23T07:31:23;13.13;;;7.35;;
26062;SDS011;13837;48.562;12.108;2023-03-23T07:33:49;7.45;;;6.72;;
26062;SDS011;13837;48.562;12.108;2023-03-23T07:36:16;8.80;;;6.95;;
26062;SDS011;13837;48.562;12.108;2023-03-23T07:38:42;10.80;;;7.75;;
26062;SDS011;13837;48.562;12.108;2023-03-23T07:41:09;13.00;;;6.97;;
26062;SDS011;13837;48.562;12.108;2023-03-23T07:43:38;9.77;;;6.80;;
26062;SDS011;13837;48.562;12.108;2023-03-23T07:46:10;7.95;;;6.75;;
26062;SDS011;13837;48.562;12.108;2023-03-23T07:48:55;9.80;;;6.97;;
26062;SDS011;13837;48.562;12.108;2023-03-23T07:51:26;11.25;;;6.90;;
26062;SDS011;13837;48.562;12.108;2023-03-23T07:53:53;7.50;;;6.60;;
26062;SDS011;13837;48.562;12.108;2023-03-23T07:56:39;8.85;;;6.13;;
26062;SDS011;13837;48.562;12.108;2023-03-23T07:59:11;7.15;;;6.25;;
26062;SDS011;13837;48.562;12.108;2023-03-23T08:01:40;8.30;;;7.22;;
26062;SDS011;13837;48.562;12.108;2023-03-23T08:04:24;7.75;;;6.18;;
26062;SDS011;13837;48.562;12.108;2023-03-23T08:07:12;7.50;;;5.82;;
26062;SDS011;13837;48.562;12.108;2023-03-23T08:09:45;10.30;;;6.03;;
26062;SDS011;13837;48.562;12.108;2023-03-23T08:12:30;6.68;;;5.88;;
26062;SDS011;13837;48.562;12.108;2023-03-23T08:15:16;7.78;;;6.78;;
26062;SDS011;13837;48.562;12.108;2023-03-23T08:18:05;10.02;;;6.57;;
26062;SDS011;13837;48.562;12.108;2023-03-23T08:20:47;8.57;;;5.28;;
26062;SDS011;13837;48.562;12.108;2023-03-23T08:23:36;8.07;;;5.22;;
26062;SDS011;13837;48.562;12.108;2023-03-23T08:26:28;12.15;;;5.63;;
26062;SDS011;13837;48.562;12.108;2023-03-23T08:29:13;6.90;;;5.28;;
26062;SDS011;13837;48.562;12.108;2023-03-23T08:31:56;8.55;;;5.85;;
26062;SDS011;13837;48.562;12.108;2023-03-23T08:34:52;7.50;;;5.22;;
26062;SDS011;13837;48.562;12.108;2023-03-23T08:37:37;8.98;;;5.25;;
26062;SDS011;13837;48.562;12.108;2023-03-23T08:40:11;9.57;;;4.70;;
26062;SDS011;13837;48.562;12.108;2023-03-23T08:42:49;9.15;;;5.10;;
26062;SDS011;13837;48.562;12.108;2023-03-23T08:45:33;7.38;;;5.30;;
26062;SDS011;13837;48.562;12.108;2023-03-23T08:48:03;8.70;;;5.78;;
26062;SDS011;13837;48.562;12.108;2023-03-23T08:50:50;8.52;;;5.57;;
26062;SDS011;13837;48.562;12.108;2023-03-23T08:53:36;7.53;;;5.97;;
26062;SDS011;13837;48.562;12.108;2023-03-23T08:56:20;5.75;;;4.80;;
26062;SDS011;13837;48.562;12.108;2023-03-23T08:59:13;8.68;;;5.53;;
26062;SDS011;13837;48.562;12.108;2023-03-23T09:01:57;7.68;;;4.97;;
26062;SDS011;13837;48.562;12.108;2023-03-23T09:04:41;7.18;;;5.30;;
26062;SDS011;13837;48.562;12.108;2023-03-23T09:07:27;7.60;;;4.70;;
26062;SDS011;13837;48.562;12.108;2023-03-23T09:09:53;8.68;;;5.38;;
26062;SDS011;13837;48.562;12.108;2023-03-23T09:12:20;5.28;;;4.78;;
26062;SDS011;13837;48.562;12.108;2023-03-23T09:14:46;6.28;;;4.65;;
26062;SDS011;13837;48.562;12.108;2023-03-23T09:17:12;8.23;;;5.20;;
26062;SDS011;13837;48.562;12.108;2023-03-23T09:19:38;7.03;;;4.80;;
26062;SDS011;13837;48.562;12.108;2023-03-23T09:22:05;4.63;;;4.20;;
26062;SDS011;13837;48.562;12.108;2023-03-23T09:24:31;8.05;;;5.10;;
26062;SDS011;13837;48.562;12.108;2023-03-23T09:26:57;7.40;;;4.55;;
26062;SDS011;13837;48.562;12.108;2023-03-23T09:29:24;7.13;;;4.75;;
26062;SDS011;13837;48.562;12.108;2023-03-23T09:31:50;8.80;;;4.93;;
26062;SDS011;13837;48.562;12.108;2023-03-23T09:34:16;6.10;;;4.30;;
26062;SDS011;13837;48.562;12.108;2023-03-23T09:36:43;4.68;;;3.75;;
26062;SDS011;13837;48.562;12.108;2023-03-23T09:39:09;5.07;;;3.95;;
26062;SDS011;13837;48.562;12.108;2023-03-23T09:41:49;6.07;;;3.80;;
26062;SDS011;13837;48.562;12.108;2023-03-23T09:44:46;8.60;;;3.55;;
26062;SDS011;13837;48.562;12.108;2023-03-23T09:52:08;4.00;;;3.33;;
26062;SDS011;13837;48.562;12.108;2023-03-23T09:54:36;3.88;;;3.38;;
26062;SDS011;13837;48.562;12.108;2023-03-23T09:57:05;5.55;;;2.72;;
26062;SDS011;13837;48.562;12.108;2023-03-23T09:59:49;5.72;;;3.00;;
26062;SDS011;13837;48.562;12.108;2023-03-23T10:02:27;4.53;;;2.50;;
26062;SDS011;13837;48.562;12.108;2023-03-23T10:04:55;3.83;;;2.80;;
26062;SDS011;13837;48.562;12.108;2023-03-23T10:07:23;8.07;;;3.15;;
26062;SDS011;13837;48.562;12.108;2023-03-23T10:09:55;3.85;;;3.03;;
26062;SDS011;13837;48.562;12.108;2023-03-23T10:17:28;5.72;;;2.20;;
26062;SDS011;13837;48.562;12.108;2023-03-23T10:22:58;2.47;;;1.90;;
26062;SDS011;13837;48.562;12.108;2023-03-23T10:25:28;2.25;;;2.05;;
26062;SDS011;13837;48.562;12.108;2023-03-23T10:30:23;3.55;;;2.00;;
26062;SDS011;13837;48.562;12.108;2023-03-23T10:32:52;2.22;;;2.03;;
26062;SDS011;13837;48.562;12.108;2023-03-23T10:35:21;2.35;;;1.90;;
26062;SDS011;13837;48.562;12.108;2023-03-23T10:37:50;2.58;;;1.75;;
26062;SDS011;13837;48.562;12.108;2023-03-23T10:40:19;3.15;;;2.33;;
26062;SDS011;13837;48.562;12.108;2023-03-23T10:42:46;2.53;;;2.08;;
26062;SDS011;13837;48.562;12.108;2023-03-23T10:45:17;4.43;;;2.03;;
26062;SDS011;13837;48.562;12.108;2023-03-23T10:47:52;2.65;;;2.08;;
26062;SDS011;13837;48.562;12.108;2023-03-23T10:50:22;2.50;;;2.00;;
26062;SDS011;13837;48.562;12.108;2023-03-23T10:52:50;2.70;;;2.20;;
26062;SDS011;13837;48.562;12.108;2023-03-23T10:55:19;4.03;;;2.25;;
26062;SDS011;13837;48.562;12.108;2023-03-23T10:58:08;3.08;;;2.42;;
26062;SDS011;13837;48.562;12.108;2023-03-23T11:00:40;4.43;;;2.70;;
26062;SDS011;13837;48.562;12.108;2023-03-23T11:08:12;2.42;;;2.22;;
26062;SDS011;13837;48.562;12.108;2023-03-23T11:10:40;3.15;;;2.30;;
26062;SDS011;13837;48.562;12.108;2023-03-23T11:13:12;4.13;;;2.60;;
26062;SDS011;13837;48.562;12.108;2023-03-23T11:15:39;3.38;;;2.20;;
26062;SDS011;13837;48.562;12.108;2023-03-23T11:18:09;3.30;;;2.40;;
26062;SDS011;13837;48.562;12.108;2023-03-23T11:20:36;4.40;;;2.45;;
26062;SDS011;13837;48.562;12.108;2023-03-23T11:25:31;2.97;;;2.10;;
26062;SDS011;13837;48.562;12.108;2023-03-23T11:27:57;5.25;;;2.35;;
26062;SDS011;13837;48.562;12.108;2023-03-23T11:30:24;1.98;;;1.88;;
26062;SDS011;13837;48.562;12.108;2023-03-23T11:32:52;2.67;;;2.45;;
26062;SDS011;13837;48.562;12.108;2023-03-23T11:35:20;3.97;;;2.35;;
26062;SDS011;13837;48.562;12.108;2023-03-23T11:37:51;3.63;;;2.20;;
26062;SDS011;13837;48.562;12.108;2023-03-23T11:40:22;3.80;;;2.40;;
26062;SDS011;13837;48.562;12.108;2023-03-23T11:53:25;4.07;;;2.40;;
26062;SDS011;13837;48.562;12.108;2023-03-23T11:58:38;4.30;;;2.00;;
26062;SDS011;13837;48.562;12.108;2023-03-23T12:01:18;3.05;;;2.13;;
26062;SDS011;13837;48.562;12.108;2023-03-23T12:06:54;3.25;;;1.83;;
26062;SDS011;13837;48.562;12.108;2023-03-23T12:09:26;2.47;;;1.60;;
26062;SDS011;13837;48.562;12.108;2023-03-23T12:17:19;3.35;;;2.17;;
26062;SDS011;13837;48.562;12.108;2023-03-23T12:19:50;6.47;;;2.30;;
26062;SDS011;13837;48.562;12.108;2023-03-23T12:22:24;2.22;;;1.85;;
26062;SDS011;13837;48.562;12.108;2023-03-23T12:25:00;2.10;;;1.90;;
26062;SDS011;13837;48.562;12.108;2023-03-23T12:29:58;4.75;;;2.25;;
26062;SDS011;13837;48.562;12.108;2023-03-23T12:32:32;2.15;;;1.98;;
26062;SDS011;13837;48.562;12.108;2023-03-23T12:35:09;3.08;;;1.85;;
26062;SDS011;13837;48.562;12.108;2023-03-23T12:40:16;2.67;;;1.77;;
26062;SDS011;13837;48.562;12.108;2023-03-23T12:48:12;3.47;;;2.00;;
26062;SDS011;13837;48.562;12.108;2023-03-23T12:50:40;3.53;;;2.15;;
26062;SDS011;13837;48.562;12.108;2023-03-23T12:55:53;2.80;;;2.13;;
26062;SDS011;13837;48.562;12.108;2023-03-23T12:58:20;2.38;;;2.17;;
26062;SDS011;13837;48.562;12.108;2023-03-23T13:06:09;3.42;;;1.98;;
26062;SDS011;13837;48.562;12.108;2023-03-23T13:08:44;4.15;;;2.10;;
26062;SDS011;13837;48.562;12.108;2023-03-23T13:11:32;3.75;;;1.90;;
26062;SDS011;13837;48.562;12.108;2023-03-23T13:14:01;2.65;;;1.75;;
26062;SDS011;13837;48.562;12.108;2023-03-23T13:17:03;3.05;;;2.30;;
26062;SDS011;13837;48.562;12.108;2023-03-23T13:24:27;2.85;;;2.03;;
26062;SDS011;13837;48.562;12.108;2023-03-23T13:26:54;3.30;;;1.88;;
26062;SDS011;13837;48.562;12.108;2023-03-23T13:29:23;4.18;;;2.17;;
26062;SDS011;13837;48.562;12.108;2023-03-23T13:31:52;3.63;;;2.15;;
26062;SDS011;13837;48.562;12.108;2023-03-23T13:34:30;2.35;;;1.92;;
26062;SDS011;13837;48.562;12.108;2023-03-23T13:37:00;1.95;;;1.73;;
26062;SDS011;13837;48.562;12.108;2023-03-23T13:44:39;3.83;;;2.00;;
26062;SDS011;13837;48.562;12.108;2023-03-23T13:49:59;1.95;;;1.77;;
26062;SDS011;13837;48.562;12.108;2023-03-23T13:53:12;1.98;;;1.60;;
26062;SDS011;13837;48.562;12.108;2023-03-23T13:57:52;1.48;;;1.38;;
26062;SDS011;13837;48.562;12.108;2023-03-23T14:03:01;1.95;;;1.70;;
26062;SDS011;13837;48.562;12.108;2023-03-23T14:07:56;1.88;;;1.70;;
26062;SDS011;13837;48.562;12.108;2023-03-23T14:10:25;1.88;;;1.65;;
26062;SDS011;13837;48.562;12.108;2023-03-23T14:12:52;3.13;;;1.95;;
26062;SDS011;13837;48.562;12.108;2023-03-23T14:15:19;2.10;;;1.73;;
26062;SDS011;13837;48.562;12.108;2023-03-23T14:17:45;4.50;;;1.90;;
26062;SDS011;13837;48.562;12.108;2023-03-23T14:20:19;2.88;;;1.88;;
26062;SDS011;13837;48.562;12.108;2023-03-23T14:22:47;2.28;;;1.85;;
26062;SDS011;13837;48.562;12.108;2023-03-23T14:25:17;3.10;;;2.17;;
26062;SDS011;13837;48.562;12.108;2023-03-23T14:27:44;2.08;;;1.88;;
26062;SDS011;13837;48.562;12.108;2023-03-23T14:30:14;2.72;;;2.28;;
26062;SDS011;13837;48.562;12.108;2023-03-23T14:32:40;2.10;;;1.90;;
26062;SDS011;13837;48.562;12.108;2023-03-23T14:35:08;2.80;;;2.20;;
26062;SDS011;13837;48.562;12.108;2023-03-23T14:37:35;7.13;;;2.20;;
26062;SDS011;13837;48.562;12.108;2023-03-23T14:40:02;3.60;;;2.22;;
26062;SDS011;13837;48.562;12.108;2023-03-23T14:42:32;2.67;;;2.00;;
26062;SDS011;13837;48.562;12.108;2023-03-23T14:44:59;4.80;;;1.95;;
26062;SDS011;13837;48.562;12.108;2023-03-23T14:47:27;3.72;;;2.28;;
26062;SDS011;13837;48.562;12.108;2023-03-23T14:49:55;2.07;;;1.90;;
26062;SDS011;13837;48.562;12.108;2023-03-23T14:52:24;2.03;;;1.83;;
26062;SDS011;13837;48.562;12.108;2023-03-23T14:54:50;2.63;;;2.28;;
26062;SDS011;13837;48.562;12.108;2023-03-23T14:57:17;2.50;;;2.10;;
26062;SDS011;13837;48.562;12.108;2023-03-23T14:59:44;9.13;;;2.30;;
26062;SDS011;13837;48.562;12.108;2023-03-23T15:02:12;2.80;;;2.45;;
26062;SDS011;13837;48.562;12.108;2023-03-23T15:04:39;3.15;;;1.70;;
26062;SDS011;13837;48.562;12.108;2023-03-23T15:07:06;3.15;;;1.90;;
26062;SDS011;13837;48.562;12.108;2023-03-23T15:09:32;3.85;;;1.88;;
26062;SDS011;13837;48.562;12.108;2023-03-23T15:12:02;3.55;;;2.20;;
26062;SDS011;13837;48.562;12.108;2023-03-23T15:14:30;2.20;;;2.00;;
26062;SDS011;13837;48.562;12.108;2023-03-23T15:16:58;4.38;;;2.08;;
26062;SDS011;13837;48.562;12.108;2023-03-23T15:19:26;1.92;;;1.70;;
26062;SDS011;13837;48.562;12.108;2023-03-23T15:21:53;2.72;;;1.60;;
26062;SDS011;13837;48.562;12.108;2023-03-23T15:24:30;5.65;;;1.92;;
26062;SDS011;13837;48.562;12.108;2023-03-23T15:27:10;3.22;;;2.20;;
26062;SDS011;13837;48.562;12.108;2023-03-23T15:29:54;2.25;;;2.05;;
26062;SDS011;13837;48.562;12.108;2023-03-23T15:32:24;2.60;;;1.80;;
26062;SDS011;13837;48.562;12.108;2023-03-23T15:34:51;5.35;;;2.55;;
26062;SDS011;13837;48.562;12.108;2023-03-23T15:37:24;5.10;;;2.25;;
26062;SDS011;13837;48.562;12.108;2023-03-23T15:39:51;3.60;;;2.17;;
26062;SDS011;13837;48.562;12.108;2023-03-23T15:42:21;2.22;;;2.03;;
26062;SDS011;13837;48.562;12.108;2023-03-23T15:50:15;3.85;;;2.35;;
26062;SDS011;13837;48.562;12.108;2023-03-23T15:52:41;2.47;;;2.28;;
26062;SDS011;13837;48.562;12.108;2023-03-23T15:55:25;3.00;;;2.70;;
26062;SDS011;13837;48.562;12.108;2023-03-23T15:57:52;6.00;;;3.47;;
26062;SDS011;13837;48.562;12.108;2023-03-23T16:00:19;5.65;;;3.88;;
26062;SDS011;13837;48.562;12.108;2023-03-23T16:02:46;9.18;;;5.07;;
26062;SDS011;13837;48.562;12.108;2023-03-23T16:05:12;6.30;;;4.18;;
26062;SDS011;13837;48.562;12.108;2023-03-23T16:07:38;3.42;;;2.78;;
26062;SDS011;13837;48.562;12.108;2023-03-23T16:10:05;4.63;;;2.33;;
26062;SDS011;13837;48.562;12.108;2023-03-23T16:12:32;3.53;;;2.17;;
26062;SDS011;13837;48.562;12.108;2023-03-23T16:14:58;2.65;;;1.95;;
26062;SDS011;13837;48.562;12.108;2023-03-23T16:17:24;2.00;;;1.83;;
26062;SDS011;13837;48.562;12.108;2023-03-23T16:19:50;4.80;;;2.20;;
26062;SDS011;13837;48.562;12.108;2023-03-23T16:22:16;2.53;;;2.30;;
26062;SDS011;13837;48.562;12.108;2023-03-23T16:24:42;4.72;;;2.50;;
26062;SDS011;13837;48.562;12.108;2023-03-23T16:27:09;5.32;;;2.88;;
26062;SDS011;13837;48.562;12.108;2023-03-23T16:29:35;4.63;;;3.08;;
26062;SDS011;13837;48.562;12.108;2023-03-23T16:32:02;3.38;;;2.20;;
26062;SDS011;13837;48.562;12.108;2023-03-23T16:34:28;3.47;;;2.33;;
26062;SDS011;13837;48.562;12.108;2023-03-23T16:36:57;4.28;;;2.08;;
26062;SDS011;13837;48.562;12.108;2023-03-23T16:39:23;3.60;;;2.55;;
26062;SDS011;13837;48.562;12.108;2023-03-23T16:41:49;4.47;;;2.28;;
26062;SDS011;13837;48.562;12.108;2023-03-23T16:44:15;3.38;;;2.40;;
26062;SDS011;13837;48.562;12.108;2023-03-23T16:46:42;2.28;;;2.08;;
26062;SDS011;13837;48.562;12.108;2023-03-23T16:49:08;4.60;;;2.50;;
26062;SDS011;13837;48.562;12.108;2023-03-23T16:51:34;3.38;;;2.00;;
26062;SDS011;13837;48.562;12.108;2023-03-23T16:54:00;2.40;;;2.20;;